sensor_id;sensor_type;location;lat;lon;timestamp;pressure;altitude;pressure_sealevel;temperature;humidity
27958;BME280;15295;42.658;23.374;2023-01-29T00:01:51;94658.50;;;5.39;54.32
27958;BME280;15295;42.658;23.374;2023-01-29T00:04:16;94653.16;;;5.42;54.59
27958;BME280;15295;42.658;23.374;2023-01-29T00:06:42;94649.09;;;5.33;54.43
27958;BME280;15295;42.658;23.374;2023-01-29T00:09:08;94687.97;;;5.40;54.65
27958;BME280;15295;42.658;23.374;2023-01-29T00:11:34;94668.88;;;5.33;54.68
27958;BME280;15295;42.658;23.374;2023-01-29T00:14:01;94635.53;;;5.07;54.54
27958;BME280;15295;42.658;23.374;2023-01-29T00:16:26;94679.28;;;5.31;54.76
27958;BME280;15295;42.658;23.374;2023-01-29T00:18:51;94662.09;;;5.24;54.61
27958;BME280;15295;42.658;23.374;2023-01-29T00:21:19;94687.47;;;5.35;54.84
27958;BME280;15295;42.658;23.374;2023-01-29T00:23:46;94689.22;;;5.46;54.57
27958;BME280;15295;42.658;23.374;2023-01-29T00:26:12;94693.06;;;5.45;54.72
27958;BME280;15295;42.658;23.374;2023-01-29T00:28:38;94700.53;;;5.52;54.82
27958;BME280;15295;42.658;23.374;2023-01-29T00:31:09;94699.94;;;5.62;54.86
27958;BME280;15295;42.658;23.374;2023-01-29T00:33:35;94700.47;;;5.71;54.30
27958;BME280;15295;42.658;23.374;2023-01-29T00:36:05;94702.34;;;5.67;54.09
27958;BME280;15295;42.658;23.374;2023-01-29T00:38:32;94686.44;;;5.66;54.13
27958;BME280;15295;42.658;23.374;2023-01-29T00:41:06;94698.16;;;5.73;54.18
27958;BME280;15295;42.658;23.374;2023-01-29T00:43:50;94693.91;;;5.72;53.94
27958;BME280;15295;42.658;23.374;2023-01-29T00:46:35;94694.63;;;5.69;54.18
27958;BME280;15295;42.658;23.374;2023-01-29T00:49:01;94694.03;;;5.79;54.15
27958;BME280;15295;42.658;23.374;2023-01-29T00:51:28;94697.03;;;5.74;54.17
27958;BME280;15295;42.658;23.374;2023-01-29T00:53:56;94688.44;;;5.69;54.25
27958;BME280;15295;42.658;23.374;2023-01-29T00:56:25;94691.59;;;5.74;54.41
27958;BME280;15295;42.658;23.374;2023-01-29T00:58:55;94686.13;;;5.71;54.35
27958;BME280;15295;42.658;23.374;2023-01-29T01:01:21;94652.47;;;5.49;54.67
27958;BME280;15295;42.658;23.374;2023-01-29T01:04:09;94691.00;;;5.84;54.58
27958;BME280;15295;42.658;23.374;2023-01-29T01:06:39;94698.00;;;5.85;54.57
27958;BME280;15295;42.658;23.374;2023-01-29T01:09:05;94662.03;;;5.66;54.52
27958;BME280;15295;42.658;23.374;2023-01-29T01:11:49;94686.81;;;5.64;54.18
27958;BME280;15295;42.658;23.374;2023-01-29T01:14:16;94699.19;;;5.65;54.50
27958;BME280;15295;42.658;23.374;2023-01-29T01:16:43;94684.63;;;5.51;54.52
27958;BME280;15295;42.658;23.374;2023-01-29T01:19:09;94688.56;;;5.53;54.86
27958;BME280;15295;42.658;23.374;2023-01-29T01:21:34;94677.16;;;5.44;55.51
27958;BME280;15295;42.658;23.374;2023-01-29T01:24:00;94683.84;;;5.50;55.43
27958;BME280;15295;42.658;23.374;2023-01-29T01:26:26;94673.34;;;5.45;55.25
27958;BME280;15295;42.658;23.374;2023-01-29T01:28:51;94676.34;;;5.40;55.42
27958;BME280;15295;42.658;23.374;2023-01-29T01:31:16;94682.78;;;5.32;55.87
27958;BME280;15295;42.658;23.374;2023-01-29T01:33:42;94678.44;;;5.27;55.69
27958;BME280;15295;42.658;23.374;2023-01-29T01:36:08;94686.56;;;5.27;55.75
27958;BME280;15295;42.658;23.374;2023-01-29T01:38:36;94683.78;;;5.24;55.87
27958;BME280;15295;42.658;23.374;2023-01-29T01:41:08;94687.66;;;5.23;55.71
27958;BME280;15295;42.658;23.374;2023-01-29T01:43:57;94670.84;;;5.14;56.24
27958;BME280;15295;42.658;23.374;2023-01-29T01:46:32;94672.00;;;5.13;56.38
27958;BME280;15295;42.658;23.374;2023-01-29T01:49:04;94682.50;;;5.18;55.91
27958;BME280;15295;42.658;23.374;2023-01-29T01:51:38;94672.75;;;5.13;56.11
27958;BME280;15295;42.658;23.374;2023-01-29T01:54:11;94667.88;;;5.00;56.20
27958;BME280;15295;42.658;23.374;2023-01-29T01:56:41;94701.00;;;5.12;56.30
27958;BME280;15295;42.658;23.374;2023-01-29T01:59:13;94700.63;;;5.14;56.75
27958;BME280;15295;42.658;23.374;2023-01-29T02:01:42;94694.75;;;5.08;56.68
27958;BME280;15295;42.658;23.374;2023-01-29T02:04:13;94678.72;;;5.00;56.50
27958;BME280;15295;42.658;23.374;2023-01-29T02:07:00;94700.53;;;5.07;56.45
27958;BME280;15295;42.658;23.374;2023-01-29T02:10:05;94680.16;;;4.94;56.68
27958;BME280;15295;42.658;23.374;2023-01-29T02:12:40;94700.53;;;5.07;56.72
27958;BME280;15295;42.658;23.374;2023-01-29T02:15:13;94703.22;;;5.07;56.74
27958;BME280;15295;42.658;23.374;2023-01-29T02:17:38;94696.41;;;4.94;57.03
27958;BME280;15295;42.658;23.374;2023-01-29T02:20:26;94705.06;;;5.03;56.93
27958;BME280;15295;42.658;23.374;2023-01-29T02:23:20;94709.53;;;4.92;57.31
27958;BME280;15295;42.658;23.374;2023-01-29T02:40:56;94719.94;;;4.90;58.11
27958;BME280;15295;42.658;23.374;2023-01-29T02:43:46;94720.34;;;4.92;57.98
27958;BME280;15295;42.658;23.374;2023-01-29T02:49:03;94727.47;;;5.00;57.91
27958;BME280;15295;42.658;23.374;2023-01-29T02:51:49;94737.88;;;4.98;58.11
27958;BME280;15295;42.658;23.374;2023-01-29T02:54:40;94695.28;;;4.76;58.11
27958;BME280;15295;42.658;23.374;2023-01-29T02:57:20;94707.25;;;4.94;58.03
27958;BME280;15295;42.658;23.374;2023-01-29T03:00:03;94729.75;;;4.98;57.94
27958;BME280;15295;42.658;23.374;2023-01-29T03:02:47;94724.75;;;5.00;57.89
27958;BME280;15295;42.658;23.374;2023-01-29T03:05:24;94720.78;;;4.94;58.08
27958;BME280;15295;42.658;23.374;2023-01-29T03:07:57;94716.34;;;4.86;58.32
27958;BME280;15295;42.658;23.374;2023-01-29T03:10:39;94711.56;;;4.79;58.29
27958;BME280;15295;42.658;23.374;2023-01-29T03:15:44;94736.81;;;5.02;58.34
27958;BME280;15295;42.658;23.374;2023-01-29T03:18:24;94704.75;;;4.85;58.32
27958;BME280;15295;42.658;23.374;2023-01-29T03:21:02;94736.81;;;5.02;58.36
27958;BME280;15295;42.658;23.374;2023-01-29T03:23:49;94700.03;;;4.82;58.21
27958;BME280;15295;42.658;23.374;2023-01-29T03:26:34;94721.00;;;4.85;58.32
27958;BME280;15295;42.658;23.374;2023-01-29T03:29:21;94721.06;;;4.89;57.99
27958;BME280;15295;42.658;23.374;2023-01-29T03:32:09;94746.00;;;4.98;58.35
27958;BME280;15295;42.658;23.374;2023-01-29T03:34:40;94736.28;;;4.97;58.10
27958;BME280;15295;42.658;23.374;2023-01-29T03:37:18;94721.75;;;4.86;58.12
27958;BME280;15295;42.658;23.374;2023-01-29T03:39:45;94725.03;;;4.95;57.67
27958;BME280;15295;42.658;23.374;2023-01-29T03:42:48;94734.44;;;5.01;57.46
27958;BME280;15295;42.658;23.374;2023-01-29T03:45:27;94730.22;;;5.03;57.74
27958;BME280;15295;42.658;23.374;2023-01-29T03:56:23;94732.16;;;5.03;57.32
27958;BME280;15295;42.658;23.374;2023-01-29T04:01:34;94740.69;;;5.05;57.51
27958;BME280;15295;42.658;23.374;2023-01-29T04:04:11;94742.28;;;5.06;57.72
27958;BME280;15295;42.658;23.374;2023-01-29T04:06:44;94723.53;;;4.97;57.92
27958;BME280;15295;42.658;23.374;2023-01-29T04:09:22;94733.59;;;4.97;58.15
27958;BME280;15295;42.658;23.374;2023-01-29T04:11:54;94740.22;;;4.99;58.13
27958;BME280;15295;42.658;23.374;2023-01-29T04:14:22;94727.31;;;4.93;58.42
27958;BME280;15295;42.658;23.374;2023-01-29T04:16:53;94746.56;;;5.07;58.13
27958;BME280;15295;42.658;23.374;2023-01-29T04:19:20;94749.28;;;5.07;58.05
27958;BME280;15295;42.658;23.374;2023-01-29T04:21:47;94741.06;;;5.03;58.04
27958;BME280;15295;42.658;23.374;2023-01-29T04:24:16;94753.97;;;5.10;58.14
27958;BME280;15295;42.658;23.374;2023-01-29T04:38:54;94756.25;;;5.08;58.05
27958;BME280;15295;42.658;23.374;2023-01-29T04:41:49;94754.25;;;5.05;57.94
27958;BME280;15295;42.658;23.374;2023-01-29T04:44:26;94761.59;;;5.04;57.94
27958;BME280;15295;42.658;23.374;2023-01-29T04:47:04;94765.06;;;5.05;57.82
27958;BME280;15295;42.658;23.374;2023-01-29T04:49:55;94754.34;;;5.08;57.76
27958;BME280;15295;42.658;23.374;2023-01-29T05:00:52;94752.63;;;5.00;57.97
27958;BME280;15295;42.658;23.374;2023-01-29T05:03:20;94739.66;;;4.90;57.70
27958;BME280;15295;42.658;23.374;2023-01-29T05:05:49;94754.97;;;5.02;57.77
27958;BME280;15295;42.658;23.374;2023-01-29T05:08:20;94750.69;;;5.01;57.44
27958;BME280;15295;42.658;23.374;2023-01-29T05:10:50;94760.75;;;5.00;57.52
27958;BME280;15295;42.658;23.374;2023-01-29T05:13:24;94765.53;;;5.07;57.60
27958;BME280;15295;42.658;23.374;2023-01-29T05:16:16;94771.00;;;5.10;57.38
27958;BME280;15295;42.658;23.374;2023-01-29T05:18:46;94770.94;;;5.07;57.61
27958;BME280;15295;42.658;23.374;2023-01-29T05:21:11;94765.53;;;5.07;57.08
27958;BME280;15295;42.658;23.374;2023-01-29T05:23:38;94774.19;;;5.16;56.93
27958;BME280;15295;42.658;23.374;2023-01-29T05:26:04;94762.81;;;5.07;56.98
27958;BME280;15295;42.658;23.374;2023-01-29T05:28:30;94772.44;;;5.04;57.19
27958;BME280;15295;42.658;23.374;2023-01-29T05:30:56;94781.09;;;5.13;57.26
27958;BME280;15295;42.658;23.374;2023-01-29T05:33:27;94780.78;;;5.15;57.02
27958;BME280;15295;42.658;23.374;2023-01-29T05:35:54;94777.13;;;5.07;57.02
27958;BME280;15295;42.658;23.374;2023-01-29T05:38:20;94782.13;;;5.05;57.03
27958;BME280;15295;42.658;23.374;2023-01-29T05:40:50;94778.91;;;5.00;57.17
27958;BME280;15295;42.658;23.374;2023-01-29T05:43:20;94787.53;;;5.05;57.12
27958;BME280;15295;42.658;23.374;2023-01-29T05:45:57;94787.91;;;5.04;57.39
27958;BME280;15295;42.658;23.374;2023-01-29T05:48:30;94781.53;;;4.96;57.49
27958;BME280;15295;42.658;23.374;2023-01-29T05:51:01;94775.63;;;4.91;57.70
27958;BME280;15295;42.658;23.374;2023-01-29T05:53:30;94779.03;;;4.88;57.71
27958;BME280;15295;42.658;23.374;2023-01-29T05:55:59;94788.81;;;4.92;57.82
27958;BME280;15295;42.658;23.374;2023-01-29T05:58:31;94775.06;;;4.82;57.76
27958;BME280;15295;42.658;23.374;2023-01-29T06:00:56;94793.97;;;4.97;57.70
27958;BME280;15295;42.658;23.374;2023-01-29T06:03:22;94786.31;;;4.84;57.94
27958;BME280;15295;42.658;23.374;2023-01-29T06:05:47;94779.34;;;4.83;57.98
27958;BME280;15295;42.658;23.374;2023-01-29T06:08:16;94794.66;;;4.94;58.05
27958;BME280;15295;42.658;23.374;2023-01-29T06:10:41;94813.75;;;5.01;58.17
27958;BME280;15295;42.658;23.374;2023-01-29T06:13:13;94808.28;;;4.98;58.20
27958;BME280;15295;42.658;23.374;2023-01-29T06:15:40;94824.22;;;5.03;58.25
27958;BME280;15295;42.658;23.374;2023-01-29T06:18:07;94801.22;;;4.93;58.38
27958;BME280;15295;42.658;23.374;2023-01-29T06:20:32;94819.25;;;5.05;58.48
27958;BME280;15295;42.658;23.374;2023-01-29T06:22:59;94816.63;;;5.08;57.92
27958;BME280;15295;42.658;23.374;2023-01-29T06:25:24;94834.53;;;5.13;58.11
27958;BME280;15295;42.658;23.374;2023-01-29T06:27:50;94826.88;;;5.18;58.13
27958;BME280;15295;42.658;23.374;2023-01-29T06:30:15;94829.16;;;5.16;58.16
27958;BME280;15295;42.658;23.374;2023-01-29T06:32:41;94810.91;;;5.13;58.18
27958;BME280;15295;42.658;23.374;2023-01-29T06:35:07;94829.31;;;5.23;58.17
27958;BME280;15295;42.658;23.374;2023-01-29T06:37:34;94827.16;;;5.13;58.08
27958;BME280;15295;42.658;23.374;2023-01-29T06:40:04;94838.66;;;5.26;58.15
27958;BME280;15295;42.658;23.374;2023-01-29T06:42:30;94840.00;;;5.16;58.40
27958;BME280;15295;42.658;23.374;2023-01-29T06:44:56;94848.34;;;5.27;57.99
27958;BME280;15295;42.658;23.374;2023-01-29T06:47:22;94855.63;;;5.23;57.96
27958;BME280;15295;42.658;23.374;2023-01-29T06:49:49;94863.47;;;5.28;58.46
27958;BME280;15295;42.658;23.374;2023-01-29T06:52:15;94808.28;;;4.98;58.14
27958;BME280;15295;42.658;23.374;2023-01-29T06:54:40;94859.19;;;5.27;58.09
27958;BME280;15295;42.658;23.374;2023-01-29T06:57:06;94859.19;;;5.27;58.26
27958;BME280;15295;42.658;23.374;2023-01-29T06:59:34;94856.03;;;5.25;58.03
27958;BME280;15295;42.658;23.374;2023-01-29T07:02:01;94816.84;;;5.00;57.95
27958;BME280;15295;42.658;23.374;2023-01-29T07:04:27;94854.19;;;5.29;57.82
27958;BME280;15295;42.658;23.374;2023-01-29T07:06:52;94858.75;;;5.25;57.81
27958;BME280;15295;42.658;23.374;2023-01-29T07:09:19;94854.91;;;5.26;58.20
27958;BME280;15295;42.658;23.374;2023-01-29T07:11:44;94861.19;;;5.30;58.12
27958;BME280;15295;42.658;23.374;2023-01-29T07:14:09;94872.88;;;5.34;58.03
27958;BME280;15295;42.658;23.374;2023-01-29T07:16:36;94873.72;;;5.38;58.13
27958;BME280;15295;42.658;23.374;2023-01-29T07:19:04;94876.03;;;5.36;58.28
27958;BME280;15295;42.658;23.374;2023-01-29T07:21:29;94863.53;;;5.31;58.15
27958;BME280;15295;42.658;23.374;2023-01-29T07:23:56;94862.91;;;5.38;57.91
27958;BME280;15295;42.658;23.374;2023-01-29T07:26:21;94885.16;;;5.47;58.08
27958;BME280;15295;42.658;23.374;2023-01-29T07:28:47;94886.06;;;5.55;58.26
27958;BME280;15295;42.658;23.374;2023-01-29T07:31:18;94890.41;;;5.59;58.09
27958;BME280;15295;42.658;23.374;2023-01-29T07:33:44;94876.44;;;5.57;57.82
27958;BME280;15295;42.658;23.374;2023-01-29T07:36:11;94882.72;;;5.61;57.45
27958;BME280;15295;42.658;23.374;2023-01-29T07:38:37;94872.50;;;5.55;57.65
27958;BME280;15295;42.658;23.374;2023-01-29T07:41:02;94875.59;;;5.53;57.50
27958;BME280;15295;42.658;23.374;2023-01-29T07:43:28;94884.63;;;5.61;57.50
27958;BME280;15295;42.658;23.374;2023-01-29T07:45:54;94887.47;;;5.68;57.52
27958;BME280;15295;42.658;23.374;2023-01-29T07:48:19;94892.97;;;5.71;57.07
27958;BME280;15295;42.658;23.374;2023-01-29T07:50:53;94886.41;;;5.72;57.38
27958;BME280;15295;42.658;23.374;2023-01-29T07:53:19;94887.63;;;5.75;57.12
27958;BME280;15295;42.658;23.374;2023-01-29T07:55:44;94893.06;;;5.75;57.13
27958;BME280;15295;42.658;23.374;2023-01-29T07:58:10;94872.16;;;5.56;57.28
27958;BME280;15295;42.658;23.374;2023-01-29T08:00:37;94868.25;;;5.54;57.36
27958;BME280;15295;42.658;23.374;2023-01-29T08:03:04;94899.13;;;5.68;57.17
27958;BME280;15295;42.658;23.374;2023-01-29T08:05:31;94879.16;;;5.57;57.42
27958;BME280;15295;42.658;23.374;2023-01-29T08:07:57;94903.09;;;5.74;57.24
27958;BME280;15295;42.658;23.374;2023-01-29T08:10:22;94909.22;;;5.71;57.31
27958;BME280;15295;42.658;23.374;2023-01-29T08:12:57;94913.16;;;5.74;57.29
27958;BME280;15295;42.658;23.374;2023-01-29T08:15:26;94910.38;;;5.70;57.30
27958;BME280;15295;42.658;23.374;2023-01-29T08:17:52;94910.66;;;5.65;57.27
27958;BME280;15295;42.658;23.374;2023-01-29T08:20:18;94911.53;;;5.69;57.55
27958;BME280;15295;42.658;23.374;2023-01-29T08:22:44;94899.69;;;5.58;57.37
27958;BME280;15295;42.658;23.374;2023-01-29T08:25:10;94916.66;;;5.74;57.22
27958;BME280;15295;42.658;23.374;2023-01-29T08:27:36;94905.25;;;5.65;57.00
27958;BME280;15295;42.658;23.374;2023-01-29T08:30:04;94917.38;;;5.71;56.75
27958;BME280;15295;42.658;23.374;2023-01-29T08:32:30;94924.44;;;5.76;56.66
27958;BME280;15295;42.658;23.374;2023-01-29T08:34:55;94922.56;;;5.80;56.59
27958;BME280;15295;42.658;23.374;2023-01-29T08:37:23;94901.47;;;5.70;56.59
27958;BME280;15295;42.658;23.374;2023-01-29T08:39:49;94914.81;;;5.78;56.36
27958;BME280;15295;42.658;23.374;2023-01-29T08:42:14;94920.09;;;5.90;56.20
27958;BME280;15295;42.658;23.374;2023-01-29T08:44:39;94911.28;;;5.78;56.10
27958;BME280;15295;42.658;23.374;2023-01-29T08:47:05;94927.88;;;5.92;55.92
27958;BME280;15295;42.658;23.374;2023-01-29T08:49:31;94926.69;;;5.89;55.47
27958;BME280;15295;42.658;23.374;2023-01-29T08:51:58;94901.47;;;5.70;55.33
27958;BME280;15295;42.658;23.374;2023-01-29T08:54:25;94914.31;;;5.73;55.29
27958;BME280;15295;42.658;23.374;2023-01-29T08:56:53;94926.44;;;5.79;55.51
27958;BME280;15295;42.658;23.374;2023-01-29T08:59:18;94931.44;;;5.77;54.96
27958;BME280;15295;42.658;23.374;2023-01-29T09:01:44;94929.00;;;5.72;54.96
27958;BME280;15295;42.658;23.374;2023-01-29T09:04:09;94941.06;;;5.74;55.12
27958;BME280;15295;42.658;23.374;2023-01-29T09:06:35;94946.56;;;5.78;55.16
27958;BME280;15295;42.658;23.374;2023-01-29T09:09:00;94948.50;;;5.77;55.03
27958;BME280;15295;42.658;23.374;2023-01-29T09:11:26;94931.28;;;5.70;55.19
27958;BME280;15295;42.658;23.374;2023-01-29T09:13:52;94948.97;;;5.83;55.17
27958;BME280;15295;42.658;23.374;2023-01-29T09:16:17;94925.50;;;5.71;55.03
27958;BME280;15295;42.658;23.374;2023-01-29T09:18:43;94943.50;;;5.79;55.20
27958;BME280;15295;42.658;23.374;2023-01-29T09:21:09;94946.78;;;5.88;55.10
27958;BME280;15295;42.658;23.374;2023-01-29T09:23:36;94940.50;;;5.84;54.70
27958;BME280;15295;42.658;23.374;2023-01-29T09:26:02;94941.31;;;5.85;54.49
27958;BME280;15295;42.658;23.374;2023-01-29T09:28:30;94940.25;;;5.89;54.70
27958;BME280;15295;42.658;23.374;2023-01-29T09:30:55;94946.50;;;5.93;54.20
27958;BME280;15295;42.658;23.374;2023-01-29T09:33:20;94886.22;;;5.62;54.44
27958;BME280;15295;42.658;23.374;2023-01-29T09:35:48;94946.22;;;5.98;54.32
27958;BME280;15295;42.658;23.374;2023-01-29T09:38:14;94920.41;;;5.85;54.29
27958;BME280;15295;42.658;23.374;2023-01-29T09:43:34;94934.97;;;5.96;53.97
27958;BME280;15295;42.658;23.374;2023-01-29T09:48:41;94921.25;;;5.89;54.02
27958;BME280;15295;42.658;23.374;2023-01-29T09:51:26;94929.94;;;5.98;54.03
27958;BME280;15295;42.658;23.374;2023-01-29T09:54:28;94896.41;;;5.68;54.18
27958;BME280;15295;42.658;23.374;2023-01-29T09:56:55;94927.09;;;5.91;53.96
27958;BME280;15295;42.658;23.374;2023-01-29T09:59:25;94915.97;;;5.96;54.05
27958;BME280;15295;42.658;23.374;2023-01-29T10:05:36;94919.16;;;6.02;54.13
27958;BME280;15295;42.658;23.374;2023-01-29T10:08:19;94921.94;;;6.05;54.22
27958;BME280;15295;42.658;23.374;2023-01-29T10:25:18;94904.38;;;5.99;54.04
27958;BME280;15295;42.658;23.374;2023-01-29T10:27:56;94892.97;;;5.90;54.04
27958;BME280;15295;42.658;23.374;2023-01-29T10:30:38;94905.22;;;6.03;53.85
27958;BME280;15295;42.658;23.374;2023-01-29T10:33:17;94883.91;;;5.83;53.71
27958;BME280;15295;42.658;23.374;2023-01-29T10:35:48;94886.56;;;5.79;53.90
27958;BME280;15295;42.658;23.374;2023-01-29T10:38:40;94886.34;;;5.88;54.03
27958;BME280;15295;42.658;23.374;2023-01-29T10:41:20;94866.28;;;5.73;54.27
27958;BME280;15295;42.658;23.374;2023-01-29T11:00:26;94884.69;;;5.83;54.88
27958;BME280;15295;42.658;23.374;2023-01-29T11:02:55;94881.69;;;5.88;54.70
27958;BME280;15295;42.658;23.374;2023-01-29T11:05:36;94875.75;;;5.83;54.87
27958;BME280;15295;42.658;23.374;2023-01-29T11:08:19;94856.72;;;5.79;54.69
27958;BME280;15295;42.658;23.374;2023-01-29T11:11:08;94867.72;;;5.86;54.66
27958;BME280;15295;42.658;23.374;2023-01-29T11:13:51;94877.47;;;5.91;54.61
27958;BME280;15295;42.658;23.374;2023-01-29T11:16:18;94874.78;;;5.91;54.62
27958;BME280;15295;42.658;23.374;2023-01-29T11:18:52;94869.34;;;5.91;54.92
27958;BME280;15295;42.658;23.374;2023-01-29T11:21:18;94864.06;;;5.98;54.81
27958;BME280;15295;42.658;23.374;2023-01-29T11:23:44;94852.66;;;5.89;54.46
27958;BME280;15295;42.658;23.374;2023-01-29T11:26:18;94848.56;;;5.98;54.52
27958;BME280;15295;42.658;23.374;2023-01-29T11:28:49;94866.66;;;6.13;54.07
27958;BME280;15295;42.658;23.374;2023-01-29T11:31:34;94836.13;;;5.97;54.13
27958;BME280;15295;42.658;23.374;2023-01-29T11:34:20;94859.38;;;6.17;54.20
27958;BME280;15295;42.658;23.374;2023-01-29T11:36:56;94853.16;;;6.17;54.25
27958;BME280;15295;42.658;23.374;2023-01-29T11:39:23;94823.06;;;6.03;54.10
27958;BME280;15295;42.658;23.374;2023-01-29T11:41:55;94830.19;;;6.11;53.82
27958;BME280;15295;42.658;23.374;2023-01-29T11:49:36;94824.59;;;6.27;54.23
27958;BME280;15295;42.658;23.374;2023-01-29T11:52:05;94826.66;;;6.33;53.88
27958;BME280;15295;42.658;23.374;2023-01-29T11:59:49;94831.06;;;6.41;53.44
27958;BME280;15295;42.658;23.374;2023-01-29T12:02:29;94811.91;;;6.31;53.40
27958;BME280;15295;42.658;23.374;2023-01-29T12:05:02;94835.16;;;6.54;53.08
27958;BME280;15295;42.658;23.374;2023-01-29T12:07:29;94831.81;;;6.42;52.88
27958;BME280;15295;42.658;23.374;2023-01-29T12:09:57;94831.81;;;6.42;52.86
27958;BME280;15295;42.658;23.374;2023-01-29T12:12:37;94831.09;;;6.45;53.12
27958;BME280;15295;42.658;23.374;2023-01-29T12:15:09;94826.09;;;6.47;52.71
27958;BME280;15295;42.658;23.374;2023-01-29T12:17:45;94831.81;;;6.42;53.15
27958;BME280;15295;42.658;23.374;2023-01-29T12:20:18;94811.47;;;6.29;53.11
27958;BME280;15295;42.658;23.374;2023-01-29T12:23:00;94832.25;;;6.44;53.30
27958;BME280;15295;42.658;23.374;2023-01-29T12:25:40;94836.53;;;6.45;53.13
27958;BME280;15295;42.658;23.374;2023-01-29T12:33:50;94810.09;;;6.42;53.36
27958;BME280;15295;42.658;23.374;2023-01-29T12:36:23;94828.00;;;6.69;53.35
27958;BME280;15295;42.658;23.374;2023-01-29T12:38:50;94831.13;;;6.71;52.85
27958;BME280;15295;42.658;23.374;2023-01-29T12:44:15;94824.84;;;6.67;52.43
27958;BME280;15295;42.658;23.374;2023-01-29T12:46:46;94818.38;;;6.49;52.03
27958;BME280;15295;42.658;23.374;2023-01-29T12:49:19;94823.94;;;6.59;52.26
27958;BME280;15295;42.658;23.374;2023-01-29T12:54:42;94838.50;;;6.74;52.13
27958;BME280;15295;42.658;23.374;2023-01-29T12:57:37;94822.91;;;6.67;51.90
27958;BME280;15295;42.658;23.374;2023-01-29T13:00:20;94825.16;;;6.62;52.26
27958;BME280;15295;42.658;23.374;2023-01-29T13:05:46;94805.63;;;6.53;52.11
27958;BME280;15295;42.658;23.374;2023-01-29T13:08:34;94824.09;;;6.70;52.08
27958;BME280;15295;42.658;23.374;2023-01-29T13:11:05;94812.78;;;6.64;51.63
27958;BME280;15295;42.658;23.374;2023-01-29T13:13:52;94828.25;;;6.60;52.08
27958;BME280;15295;42.658;23.374;2023-01-29T13:16:24;94809.13;;;6.53;52.34
27958;BME280;15295;42.658;23.374;2023-01-29T13:18:55;94820.16;;;6.64;52.16
27958;BME280;15295;42.658;23.374;2023-01-29T13:21:42;94817.72;;;6.59;51.91
27958;BME280;15295;42.658;23.374;2023-01-29T13:24:20;94818.66;;;6.44;51.98
27958;BME280;15295;42.658;23.374;2023-01-29T13:26:47;94825.25;;;6.43;52.01
27958;BME280;15295;42.658;23.374;2023-01-29T13:29:21;94826.09;;;6.47;52.32
27958;BME280;15295;42.658;23.374;2023-01-29T13:31:49;94813.63;;;6.42;52.51
27958;BME280;15295;42.658;23.374;2023-01-29T13:34:25;94836.75;;;6.59;52.68
27958;BME280;15295;42.658;23.374;2023-01-29T13:37:00;94846.25;;;6.72;52.71
27958;BME280;15295;42.658;23.374;2023-01-29T13:39:36;94844.38;;;6.76;52.76
27958;BME280;15295;42.658;23.374;2023-01-29T13:42:20;94836.47;;;6.67;52.22
27958;BME280;15295;42.658;23.374;2023-01-29T13:44:57;94839.69;;;6.73;52.19
27958;BME280;15295;42.658;23.374;2023-01-29T13:47:27;94847.97;;;6.83;52.21
27958;BME280;15295;42.658;23.374;2023-01-29T13:49:56;94835.81;;;6.74;52.11
27958;BME280;15295;42.658;23.374;2023-01-29T14:08:01;94860.19;;;6.44;51.81
27958;BME280;15295;42.658;23.374;2023-01-29T14:10:32;94856.66;;;6.44;51.92
27958;BME280;15295;42.658;23.374;2023-01-29T14:18:25;94860.44;;;6.36;51.37
27958;BME280;15295;42.658;23.374;2023-01-29T14:21:00;94861.72;;;6.19;51.67
27958;BME280;15295;42.658;23.374;2023-01-29T14:23:30;94875.44;;;6.30;51.81
27958;BME280;15295;42.658;23.374;2023-01-29T14:26:03;94873.03;;;6.24;51.51
27958;BME280;15295;42.658;23.374;2023-01-29T14:28:32;94835.97;;;5.87;51.36
27958;BME280;15295;42.658;23.374;2023-01-29T14:30:58;94884.13;;;6.16;51.46
27958;BME280;15295;42.658;23.374;2023-01-29T14:33:27;94890.72;;;6.15;51.87
27958;BME280;15295;42.658;23.374;2023-01-29T14:35:57;94878.66;;;6.12;51.57
27958;BME280;15295;42.658;23.374;2023-01-29T14:38:28;94887.63;;;6.16;52.05
27958;BME280;15295;42.658;23.374;2023-01-29T14:41:04;94886.78;;;6.12;52.11
27958;BME280;15295;42.658;23.374;2023-01-29T14:43:31;94895.59;;;6.06;52.42
27958;BME280;15295;42.658;23.374;2023-01-29T14:49:11;94868.63;;;5.94;52.76
27958;BME280;15295;42.658;23.374;2023-01-29T14:52:00;94884.72;;;6.06;52.78
27958;BME280;15295;42.658;23.374;2023-01-29T14:54:26;94891.31;;;6.05;53.14
27958;BME280;15295;42.658;23.374;2023-01-29T14:56:58;94862.84;;;5.95;52.97
27958;BME280;15295;42.658;23.374;2023-01-29T15:02:20;94891.97;;;5.98;53.34
27958;BME280;15295;42.658;23.374;2023-01-29T15:04:49;94885.72;;;5.94;53.50
27958;BME280;15295;42.658;23.374;2023-01-29T15:07:43;94886.63;;;5.83;53.77
27958;BME280;15295;42.658;23.374;2023-01-29T15:10:21;94889.69;;;5.81;53.71
27958;BME280;15295;42.658;23.374;2023-01-29T15:15:43;94882.53;;;5.73;53.98
27958;BME280;15295;42.658;23.374;2023-01-29T15:21:18;94870.56;;;5.74;54.22
27958;BME280;15295;42.658;23.374;2023-01-29T15:23:44;94868.13;;;5.69;54.23
27958;BME280;15295;42.658;23.374;2023-01-29T15:26:23;94875.78;;;5.64;54.53
27958;BME280;15295;42.658;23.374;2023-01-29T15:28:57;94878.44;;;5.60;54.65
27958;BME280;15295;42.658;23.374;2023-01-29T15:31:23;94873.50;;;5.66;54.58
27958;BME280;15295;42.658;23.374;2023-01-29T15:33:51;94885.13;;;5.66;54.21
27958;BME280;15295;42.658;23.374;2023-01-29T15:36:28;94885.84;;;5.63;54.16
27958;BME280;15295;42.658;23.374;2023-01-29T15:41:38;94896.47;;;5.53;54.32
27958;BME280;15295;42.658;23.374;2023-01-29T15:44:12;94903.13;;;5.55;54.28
27958;BME280;15295;42.658;23.374;2023-01-29T15:46:39;94868.31;;;5.38;54.26
27958;BME280;15295;42.658;23.374;2023-01-29T15:49:16;94884.41;;;5.50;54.40
27958;BME280;15295;42.658;23.374;2023-01-29T15:51:45;94889.78;;;5.46;54.57
27958;BME280;15295;42.658;23.374;2023-01-29T15:54:13;94887.91;;;5.51;54.68
27958;BME280;15295;42.658;23.374;2023-01-29T15:56:49;94900.97;;;5.64;54.70